Time;durP1;ratioP1;P1;durP2;ratioP2;P2;SDS_P1;SDS_P2;PMS_P1;PMS_P2;Temp;Humidity;BMP_temperature;BMP_pressure;BME280_temperature;BME280_humidity;BME280_pressure;Samples;Min_cycle;Max_cycle;Signal;HPM_P1;HPM_P2
2023/12/20 00:02:20;;;;;;;8.90;4.30;;;;;;;10.84;67.45;101519.78;4774710;29;125058;-70
2023/12/20 00:04:47;;;;;;;13.32;3.70;;;;;;;10.80;67.23;101524.31;4774508;29;123679;-69
2023/12/20 00:07:15;;;;;;;17.35;3.85;;;;;;;10.77;67.12;101528.88;4762170;29;119465;-69
2023/12/20 00:09:43;;;;;;;10.90;3.53;;;;;;;10.73;67.23;101527.25;4777802;29;118964;-69
2023/12/20 00:12:10;;;;;;;14.82;3.30;;;;;;;10.67;66.86;101523.88;4760255;29;123774;-69
2023/12/20 00:14:37;;;;;;;12.40;2.90;;;;;;;10.63;67.08;101522.25;4760374;29;122673;-69
2023/12/20 00:17:04;;;;;;;15.05;3.00;;;;;;;10.58;66.81;101528.63;4774905;29;119807;-69
2023/12/20 00:19:31;;;;;;;8.93;3.00;;;;;;;10.54;66.91;101535.81;4770133;29;119935;-69
2023/12/20 00:21:59;;;;;;;9.48;3.25;;;;;;;10.49;66.89;101532.44;4768532;29;124140;-69
2023/12/20 00:24:26;;;;;;;12.85;3.10;;;;;;;10.45;66.87;101533.47;4761307;29;123385;-69
2023/12/20 00:26:54;;;;;;;15.25;3.25;;;;;;;10.41;66.67;101537.16;4769040;29;120178;-69
2023/12/20 00:29:21;;;;;;;10.48;3.00;;;;;;;10.35;66.62;101535.56;4767938;29;119826;-69
2023/12/20 00:31:48;;;;;;;10.13;3.05;;;;;;;10.31;66.79;101534.78;4769672;29;122836;-69
2023/12/20 00:34:15;;;;;;;12.88;3.55;;;;;;;10.27;66.77;101533.13;4777051;29;123554;-69
2023/12/20 00:36:43;;;;;;;9.57;3.45;;;;;;;10.25;66.66;101529.69;4777513;29;119299;-69
2023/12/20 00:39:10;;;;;;;10.20;3.17;;;;;;;10.23;66.84;101528.88;4757316;29;119452;-69
2023/12/20 00:41:37;;;;;;;9.40;3.10;;;;;;;10.21;66.87;101528.06;4760348;29;124016;-69
2023/12/20 00:44:04;;;;;;;7.95;3.15;;;;;;;10.18;66.95;101509.63;4771339;29;124063;-69
2023/12/20 00:46:31;;;;;;;11.60;3.15;;;;;;;10.18;66.84;101514.06;4772880;29;119534;-69
2023/12/20 00:48:59;;;;;;;8.52;3.10;;;;;;;10.16;66.83;101516.75;4777803;29;119445;-69
2023/12/20 00:51:26;;;;;;;13.95;3.22;;;;;;;10.14;66.95;101513.28;4774829;29;124346;-69
2023/12/20 00:53:54;;;;;;;15.95;3.97;;;;;;;10.11;66.71;101514.25;4759840;29;123953;-69
2023/12/20 00:56:22;;;;;;;13.18;3.88;;;;;;;10.07;66.78;101512.59;4751477;29;120324;-71
2023/12/20 00:58:49;;;;;;;15.23;3.67;;;;;;;10.05;66.73;101514.44;4770968;29;118999;-69
2023/12/20 01:01:17;;;;;;;14.38;4.18;;;;;;;10.03;66.65;101507.47;4759380;29;124866;-69
2023/12/20 01:03:44;;;;;;;14.70;4.32;;;;;;;10.01;66.68;101511.94;4776168;29;124166;-69
2023/12/20 01:06:11;;;;;;;10.90;4.25;;;;;;;9.97;66.73;101515.63;4747823;29;120191;-69
2023/12/20 01:08:39;;;;;;;13.98;3.67;;;;;;;9.93;66.74;101510.41;4773456;29;119189;-69
2023/12/20 01:11:06;;;;;;;13.85;4.05;;;;;;;9.91;66.60;101516.66;4766467;29;123949;-69
2023/12/20 01:13:33;;;;;;;18.10;3.97;;;;;;;9.88;66.63;101520.25;4756984;29;124179;-69
2023/12/20 01:16:01;;;;;;;13.38;4.03;;;;;;;9.87;66.68;101537.06;4773150;29;121075;-69
2023/12/20 01:18:28;;;;;;;15.65;4.03;;;;;;;9.84;66.70;101531.84;4753840;29;119771;-69
2023/12/20 01:20:55;;;;;;;12.68;3.78;;;;;;;9.81;66.52;101531.94;4755780;29;124228;-69
2023/12/20 01:23:22;;;;;;;15.13;3.60;;;;;;;9.78;66.54;101532.06;4746474;29;123725;-69
2023/12/20 01:25:49;;;;;;;10.65;3.35;;;;;;;9.75;66.63;101527.69;4757210;29;121180;-69
2023/12/20 01:28:17;;;;;;;10.73;3.03;;;;;;;9.74;66.54;101535.72;4776047;29;118480;-70
2023/12/20 01:30:44;;;;;;;14.13;2.67;;;;;;;9.72;66.56;101532.25;4737300;29;125042;-69
2023/12/20 01:33:11;;;;;;;12.02;3.00;;;;;;;9.72;66.72;101532.25;4776299;29;123659;-70
2023/12/20 01:35:38;;;;;;;12.82;3.10;;;;;;;9.71;66.43;101536.66;4757012;29;119503;-70
2023/12/20 01:38:06;;;;;;;11.45;3.30;;;;;;;9.70;66.64;101539.34;4736876;29;119725;-70
2023/12/20 01:40:33;;;;;;;12.93;2.60;;;;;;;9.70;66.84;101536.69;4766032;29;124982;-70
2023/12/20 01:43:08;;;;;;;13.13;3.60;;;;;;;9.69;66.74;101537.63;4768153;29;124371;-70
2023/12/20 01:45:36;;;;;;;14.73;2.70;;;;;;;9.69;66.50;101533.19;4776496;29;120418;-70
2023/12/20 01:48:04;;;;;;;9.32;2.42;;;;;;;9.68;66.75;101535.88;4768370;29;120486;-70
2023/12/20 01:50:33;;;;;;;12.23;2.65;;;;;;;9.67;66.61;101523.56;4776151;29;125239;-70
2023/12/20 01:53:00;;;;;;;12.90;2.65;;;;;;;9.67;66.55;101523.56;4775883;29;124217;-70
2023/12/20 01:55:31;;;;;;;9.20;2.47;;;;;;;9.66;66.76;101516.53;4759698;29;120732;-70
2023/12/20 01:57:59;;;;;;;11.32;2.53;;;;;;;9.63;66.59;101522.81;4745794;29;118948;-70
2023/12/20 02:00:28;;;;;;;10.40;2.45;;;;;;;9.61;66.63;101529.91;4766058;29;123267;-69
2023/12/20 02:03:00;;;;;;;11.45;2.33;;;;;;;9.60;66.49;101527.31;4750129;29;123716;-70
2023/12/20 02:05:30;;;;;;;10.55;2.60;;;;;;;9.58;66.54;101527.34;4766373;29;120917;-70
2023/12/20 02:07:57;;;;;;;10.07;2.15;;;;;;;9.55;66.66;101520.38;4759170;29;120942;-70
2023/12/20 02:10:25;;;;;;;12.02;2.42;;;;;;;9.53;66.62;101516.94;4755521;29;124135;-70
2023/12/20 02:12:52;;;;;;;13.07;2.63;;;;;;;9.51;66.51;101518.75;4752142;29;122966;-69
2023/12/20 02:15:20;;;;;;;5.43;2.08;;;;;;;9.49;66.53;101520.59;4774275;29;119545;-69
2023/12/20 02:17:48;;;;;;;15.98;2.47;;;;;;;9.46;66.57;101525.94;4754934;29;119133;-70
2023/12/20 02:20:15;;;;;;;11.57;2.25;;;;;;;9.44;66.48;101522.47;4754475;29;123798;-70
2023/12/20 02:22:42;;;;;;;14.38;2.35;;;;;;;9.43;66.64;101526.03;4777670;29;124493;-70
2023/12/20 02:25:10;;;;;;;11.88;2.15;;;;;;;9.41;66.53;101538.44;4770397;29;119916;-70
2023/12/20 02:27:39;;;;;;;12.93;2.30;;;;;;;9.39;66.72;101524.38;4751124;29;118849;-70
2023/12/20 02:30:06;;;;;;;13.75;2.03;;;;;;;9.36;66.43;101519.19;4773454;29;123246;-70
2023/12/20 02:32:34;;;;;;;12.32;2.30;;;;;;;9.35;66.41;101523.59;4768163;29;124161;-69
2023/12/20 02:35:01;;;;;;;14.93;2.80;;;;;;;9.32;66.31;101528.13;4756021;29;119266;-70
2023/12/20 02:37:28;;;;;;;11.38;2.80;;;;;;;9.30;66.56;101532.59;4755731;29;119687;-70
2023/12/20 02:39:55;;;;;;;9.32;1.92;;;;;;;9.28;66.42;101534.41;4776576;29;124325;-69
2023/12/20 02:42:22;;;;;;;14.90;2.38;;;;;;;9.25;66.61;101526.56;4771440;29;124063;-70
2023/12/20 02:44:49;;;;;;;20.25;2.50;;;;;;;9.24;66.52;101530.97;4760096;29;119093;-70
2023/12/20 02:47:17;;;;;;;12.57;2.10;;;;;;;9.22;66.63;101526.66;4762902;29;120094;-70
2023/12/20 02:49:44;;;;;;;15.85;2.35;;;;;;;9.20;66.51;101523.19;4771036;29;123043;-70
2023/12/20 02:52:11;;;;;;;11.32;2.70;;;;;;;9.18;66.45;101531.16;4778336;29;123655;-70
2023/12/20 02:54:38;;;;;;;12.85;2.65;;;;;;;9.15;66.61;101532.13;4778367;29;120843;-70
2023/12/20 02:57:06;;;;;;;13.32;2.53;;;;;;;9.15;66.37;101526.84;4777082;29;120421;-69
2023/12/20 02:59:33;;;;;;;11.38;2.20;;;;;;;9.13;66.74;101523.34;4750373;29;123928;-69
2023/12/20 03:02:00;;;;;;;11.60;2.38;;;;;;;9.12;66.47;101516.34;4776513;29;125216;-69
2023/12/20 03:04:28;;;;;;;10.32;2.42;;;;;;;9.12;66.58;101521.63;4774300;29;119808;-69
2023/12/20 03:06:55;;;;;;;10.10;2.50;;;;;;;9.10;66.46;101518.16;4757957;29;121466;-70
2023/12/20 03:09:22;;;;;;;12.07;2.40;;;;;;;9.10;66.75;101523.44;4773660;29;123845;-70
2023/12/20 03:11:49;;;;;;;10.63;2.25;;;;;;;9.09;66.59;101515.56;4776476;29;126085;-70
2023/12/20 03:14:16;;;;;;;18.13;2.80;;;;;;;9.08;66.70;101514.72;4778469;29;119393;-70
2023/12/20 03:16:49;;;;;;;14.95;2.28;;;;;;;9.09;66.53;101511.13;4780113;29;119059;-70
2023/12/20 03:19:17;;;;;;;14.65;2.40;;;;;;;9.08;66.62;101509.41;4771825;29;124569;-70
2023/12/20 03:21:44;;;;;;;14.65;2.55;;;;;;;9.06;66.90;101505.97;4749759;29;123024;-70
2023/12/20 03:24:11;;;;;;;17.92;2.47;;;;;;;9.06;66.55;101494.50;4769887;29;119900;-70
2023/12/20 03:26:38;;;;;;;10.63;2.33;;;;;;;9.06;66.80;101495.38;4762512;29;119180;-69
2023/12/20 03:29:06;;;;;;;12.23;2.20;;;;;;;9.04;66.68;101497.22;4769030;29;124129;-69
2023/12/20 03:31:33;;;;;;;14.27;3.92;;;;;;;9.03;66.47;101500.75;4766615;29;124527;-69
2023/12/20 03:34:00;;;;;;;13.40;2.38;;;;;;;9.01;66.77;101497.28;4772301;29;119989;-70
2023/12/20 03:36:27;;;;;;;11.80;2.78;;;;;;;9.00;66.75;101500.81;4758301;29;119516;-70
2023/12/20 03:38:54;;;;;;;15.57;2.70;;;;;;;9.00;66.64;101489.41;4767289;29;124052;-70
2023/12/20 03:41:21;;;;;;;11.25;2.50;;;;;;;8.98;66.86;101500.00;4741763;29;124424;-69
2023/12/20 03:43:48;;;;;;;14.88;2.53;;;;;;;8.98;66.94;101492.06;4773329;29;120320;-70
2023/12/20 03:46:16;;;;;;;15.02;3.13;;;;;;;8.98;66.88;101502.63;4755013;29;119924;-70
2023/12/20 03:48:43;;;;;;;12.30;2.83;;;;;;;8.96;66.73;101489.47;4777003;29;124409;-69
2023/12/20 03:51:10;;;;;;;16.25;2.80;;;;;;;8.96;67.00;101485.97;4773601;29;124584;-70
2023/12/20 03:53:39;;;;;;;17.17;3.50;;;;;;;8.95;66.78;101487.75;4773142;29;119283;-69
2023/12/20 03:56:06;;;;;;;16.10;2.88;;;;;;;8.94;66.63;101480.72;4759467;29;117632;-70
2023/12/20 03:58:33;;;;;;;14.02;2.95;;;;;;;8.94;66.67;101479.88;4757493;29;124043;-70
2023/12/20 04:01:00;;;;;;;18.95;2.85;;;;;;;8.91;66.47;101478.19;4779186;29;123924;-69
2023/12/20 04:03:28;;;;;;;18.60;3.25;;;;;;;8.92;66.72;101484.31;4769473;29;119208;-70
2023/12/20 04:05:55;;;;;;;15.32;3.25;;;;;;;8.90;66.73;101483.50;4768520;29;119386;-69
2023/12/20 04:08:22;;;;;;;16.58;3.05;;;;;;;8.90;66.64;101480.88;4776970;29;124231;-69
2023/12/20 04:10:49;;;;;;;13.77;2.58;;;;;;;8.92;66.87;101486.97;4780232;29;124483;-69
2023/12/20 04:13:16;;;;;;;16.17;3.40;;;;;;;8.94;66.88;101495.72;4772055;29;119532;-69
2023/12/20 04:15:44;;;;;;;15.48;2.67;;;;;;;8.94;66.84;101498.34;4772714;29;118872;-69
2023/12/20 04:18:11;;;;;;;14.38;2.75;;;;;;;8.98;67.07;101497.34;4758937;29;122980;-69
2023/12/20 04:20:38;;;;;;;16.60;2.78;;;;;;;9.00;67.20;101497.31;4767376;29;123934;-70
2023/12/20 04:23:05;;;;;;;11.65;2.90;;;;;;;9.02;67.02;101504.28;4758904;29;118642;-69
2023/12/20 04:25:32;;;;;;;14.77;2.50;;;;;;;9.06;67.08;101494.50;4772441;29;118425;-69
2023/12/20 04:27:59;;;;;;;13.88;2.63;;;;;;;9.09;67.26;101495.28;4761534;29;124020;-70
2023/12/20 04:30:26;;;;;;;11.60;2.90;;;;;;;9.12;67.06;101495.19;4772909;29;124299;-70
2023/12/20 04:32:54;;;;;;;16.73;3.20;;;;;;;9.16;67.19;101496.00;4765148;29;120227;-69
2023/12/20 04:35:21;;;;;;;14.70;3.15;;;;;;;9.19;67.09;101500.31;4773249;29;119760;-70
2023/12/20 04:37:49;;;;;;;17.90;3.13;;;;;;;9.22;67.21;101500.22;4765225;29;123592;-69
2023/12/20 04:40:16;;;;;;;22.70;2.90;;;;;;;9.25;67.12;101500.13;4761104;29;123668;-70
2023/12/20 04:42:43;;;;;;;11.88;2.47;;;;;;;9.27;67.25;101493.91;4776988;29;119338;-70
2023/12/20 04:45:12;;;;;;;20.38;3.50;;;;;;;9.31;67.22;101494.69;4745696;29;119130;-69
2023/12/20 04:47:41;;;;;;;16.50;2.80;;;;;;;9.33;67.22;101492.84;4775997;29;123996;-70
2023/12/20 04:50:09;;;;;;;14.20;2.78;;;;;;;9.35;67.22;101485.75;4757193;29;123378;-70
2023/12/20 04:52:37;;;;;;;17.63;2.88;;;;;;;9.39;67.38;101487.38;4766241;29;119152;-69
2023/12/20 04:55:04;;;;;;;12.55;2.80;;;;;;;9.42;67.11;101487.31;4770917;29;118859;-69
2023/12/20 04:57:32;;;;;;;11.75;2.70;;;;;;;9.45;67.40;101492.47;4757711;29;125626;-70
2023/12/20 04:59:59;;;;;;;17.75;3.03;;;;;;;9.47;67.30;101485.34;4772136;29;123915;-70
2023/12/20 05:02:26;;;;;;;17.77;3.22;;;;;;;9.49;67.05;101488.84;4751225;29;119569;-70
2023/12/20 05:04:53;;;;;;;14.13;3.25;;;;;;;9.50;67.19;101487.91;4773871;29;119303;-70
2023/12/20 05:07:22;;;;;;;13.63;2.80;;;;;;;9.51;66.97;101486.13;4773704;29;124036;-70
2023/12/20 05:09:49;;;;;;;14.45;2.83;;;;;;;9.53;67.15;101485.19;4755849;29;123685;-70
2023/12/20 05:12:16;;;;;;;15.07;2.95;;;;;;;9.53;67.16;101485.19;4775327;29;119289;-69
2023/12/20 05:14:44;;;;;;;13.23;2.92;;;;;;;9.57;66.95;101479.78;4767588;29;118823;-70
2023/12/20 05:17:11;;;;;;;16.92;2.75;;;;;;;9.57;66.76;101483.31;4777456;29;123984;-70
2023/12/20 05:19:38;;;;;;;14.23;3.25;;;;;;;9.59;66.88;101472.69;4754661;29;125706;-70
2023/12/20 05:22:05;;;;;;;17.38;3.03;;;;;;;9.60;67.08;101479.72;4745145;29;120617;-70
2023/12/20 05:24:32;;;;;;;15.68;2.80;;;;;;;9.61;67.13;101470.88;4737971;29;119315;-70
2023/12/20 05:27:00;;;;;;;15.15;2.92;;;;;;;9.62;67.06;101472.59;4766404;29;123778;-70
2023/12/20 05:29:27;;;;;;;12.88;2.80;;;;;;;9.65;66.88;101472.50;4776558;29;124492;-69
2023/12/20 05:31:54;;;;;;;16.85;3.65;;;;;;;9.66;67.12;101474.22;4775005;29;119996;-70
2023/12/20 05:34:21;;;;;;;15.43;3.20;;;;;;;9.68;67.04;101469.75;4771570;29;118644;-70
2023/12/20 05:36:48;;;;;;;14.32;2.67;;;;;;;9.70;67.09;101465.28;4735699;29;124822;-70
2023/12/20 05:39:16;;;;;;;16.83;2.92;;;;;;;9.70;67.09;101466.16;4774661;29;125122;-70
2023/12/20 05:41:43;;;;;;;14.45;2.80;;;;;;;9.72;67.11;101464.34;4776681;29;119454;-69
2023/12/20 05:44:10;;;;;;;16.40;3.05;;;;;;;9.76;67.09;101470.41;4772657;29;118011;-70
2023/12/20 05:46:37;;;;;;;13.02;2.80;;;;;;;9.77;67.06;101466.81;4770274;29;124016;-70
2023/12/20 05:49:04;;;;;;;17.98;3.10;;;;;;;9.80;67.06;101465.88;4779514;29;124158;-70
2023/12/20 05:51:32;;;;;;;10.07;2.65;;;;;;;9.82;67.15;101464.91;4762973;29;117803;-69
2023/12/20 05:53:59;;;;;;;16.50;3.20;;;;;;;9.84;66.94;101465.72;4751336;29;118562;-69
2023/12/20 05:56:27;;;;;;;13.38;2.83;;;;;;;9.85;67.02;101472.75;4769733;29;123973;-69
2023/12/20 05:58:54;;;;;;;14.40;2.40;;;;;;;9.87;67.07;101473.56;4754372;29;124893;-70
2023/12/20 06:01:21;;;;;;;13.93;2.88;;;;;;;9.90;66.88;101484.03;4755966;29;119076;-70
2023/12/20 06:03:49;;;;;;;16.77;2.70;;;;;;;9.91;66.87;101480.47;4755118;29;119166;-70
2023/12/20 06:06:17;;;;;;;15.93;2.80;;;;;;;9.94;67.05;101484.81;4773397;29;123914;-70
2023/12/20 06:08:44;;;;;;;15.00;2.90;;;;;;;9.97;67.11;101491.78;4755433;29;127330;-69
2023/12/20 06:11:13;;;;;;;16.13;3.00;;;;;;;9.98;66.91;101490.88;4777058;29;120052;-70
2023/12/20 06:13:40;;;;;;;18.00;2.63;;;;;;;10.00;66.73;101494.31;4770088;29;120473;-70
2023/12/20 06:16:07;;;;;;;14.57;2.50;;;;;;;10.01;66.70;101490.78;4760057;29;123904;-70
2023/12/20 06:18:36;;;;;;;16.77;2.80;;;;;;;10.03;66.67;101488.94;4763220;29;123992;-70
2023/12/20 06:21:04;;;;;;;14.82;2.70;;;;;;;10.05;66.71;101492.41;4762454;29;119533;-70
2023/12/20 06:23:31;;;;;;;15.07;2.67;;;;;;;10.05;66.71;101484.47;4747669;29;118443;-70
2023/12/20 06:25:59;;;;;;;14.80;3.05;;;;;;;10.06;66.90;101488.84;4762862;29;125371;-70
2023/12/20 06:28:26;;;;;;;11.82;2.90;;;;;;;10.06;66.60;101488.84;4756601;29;123142;-70
2023/12/20 06:30:54;;;;;;;12.30;2.95;;;;;;;10.06;66.70;101488.84;4778761;29;120419;-69
2023/12/20 06:33:22;;;;;;;17.10;3.15;;;;;;;10.09;66.54;101483.44;4772994;29;118673;-70
2023/12/20 06:35:49;;;;;;;15.30;2.80;;;;;;;10.09;66.77;101484.28;4776734;29;124354;-70
2023/12/20 06:38:18;;;;;;;12.25;2.47;;;;;;;10.10;66.56;101485.19;4752871;29;124081;-70
2023/12/20 06:40:46;;;;;;;20.17;2.60;;;;;;;10.10;66.22;101485.19;4774781;29;119360;-70
2023/12/20 06:43:13;;;;;;;13.77;2.72;;;;;;;10.09;66.51;101464.91;4770106;29;119116;-70
2023/12/20 06:46:00;;;;;;;15.60;2.83;;;;;;;10.09;66.42;101480.78;4778975;29;124403;-70
2023/12/20 06:48:27;;;;;;;18.10;2.40;;;;;;;10.09;66.45;101483.44;4778905;29;123768;-69
2023/12/20 06:50:54;;;;;;;17.00;2.30;;;;;;;10.08;66.24;101479.09;4761150;29;119622;-70
2023/12/20 06:53:21;;;;;;;17.45;2.30;;;;;;;10.09;66.34;101488.72;4761285;29;120826;-70
2023/12/20 06:55:50;;;;;;;14.95;2.35;;;;;;;10.08;66.25;101487.03;4776232;29;124703;-70
2023/12/20 06:58:18;;;;;;;14.30;2.70;;;;;;;10.07;66.20;101480.84;4742906;29;123577;-70
2023/12/20 07:00:45;;;;;;;15.70;2.63;;;;;;;10.07;66.22;101479.97;4755490;29;120453;-70
2023/12/20 07:03:13;;;;;;;11.80;3.25;;;;;;;10.06;66.36;101478.28;4759274;29;119245;-70
2023/12/20 07:05:40;;;;;;;13.25;2.38;;;;;;;10.05;65.96;101480.03;4776166;29;124496;-70
2023/12/20 07:08:07;;;;;;;17.73;2.55;;;;;;;10.03;66.27;101479.22;4775715;29;123944;-70
2023/12/20 07:10:35;;;;;;;12.63;2.90;;;;;;;10.03;66.11;101478.34;4771489;29;119966;-70
2023/12/20 07:13:02;;;;;;;14.02;2.90;;;;;;;10.02;66.19;101471.31;4769896;29;120530;-70
2023/12/20 07:15:29;;;;;;;14.88;3.05;;;;;;;9.99;66.16;101467.00;4777908;29;123987;-70
2023/12/20 07:17:56;;;;;;;15.80;2.60;;;;;;;9.98;66.09;101475.00;4774978;29;123662;-71
2023/12/20 07:20:24;;;;;;;12.88;2.80;;;;;;;9.96;66.18;101476.81;4774872;29;118293;-70
2023/12/20 07:22:51;;;;;;;15.00;3.22;;;;;;;9.96;65.90;101471.53;4757538;29;119770;-70
2023/12/20 07:25:19;;;;;;;6.05;1.50;;;;;;;9.94;66.28;101469.81;4773541;29;124067;-71
2023/12/20 07:27:47;;;;;;;10.50;1.75;;;;;;;9.94;66.14;101474.22;4774654;29;124979;-71
2023/12/20 07:30:15;;;;;;;16.80;2.08;;;;;;;9.94;66.22;101475.09;4752401;29;118427;-71
2023/12/20 07:32:42;;;;;;;9.18;1.67;;;;;;;9.91;66.24;101475.19;4765004;29;119416;-71
2023/12/20 07:35:09;;;;;;;5.80;1.80;;;;;;;9.93;66.07;101477.78;4758137;29;124900;-70
2023/12/20 07:37:37;;;;;;;7.03;2.20;;;;;;;9.91;66.23;101476.97;4748360;29;123873;-70
2023/12/20 07:40:04;;;;;;;6.65;1.92;;;;;;;9.91;66.16;101477.84;4764385;29;119443;-69
2023/12/20 07:42:32;;;;;;;5.10;1.60;;;;;;;9.89;66.24;101477.03;4771281;29;120051;-70
2023/12/20 07:44:59;;;;;;;10.02;2.50;;;;;;;9.89;66.13;101477.03;4772308;29;124177;-70
2023/12/20 07:47:26;;;;;;;7.40;1.88;;;;;;;9.86;66.11;101477.13;4746048;29;125854;-70
2023/12/20 07:49:54;;;;;;;9.18;2.10;;;;;;;9.86;66.43;101477.13;4757765;29;120654;-69
2023/12/20 07:52:23;;;;;;;7.18;2.05;;;;;;;9.86;66.20;101469.16;4755869;29;120753;-71
2023/12/20 07:54:50;;;;;;;10.80;2.17;;;;;;;9.85;66.16;101470.09;4760216;29;123750;-71
2023/12/20 07:57:17;;;;;;;12.48;2.30;;;;;;;9.85;66.20;101470.09;4775774;29;124125;-71
2023/12/20 07:59:45;;;;;;;7.70;2.28;;;;;;;9.85;66.32;101470.09;4774466;29;119729;-71
2023/12/20 08:02:12;;;;;;;8.70;2.28;;;;;;;9.85;65.73;101470.09;4758257;29;119863;-72
2023/12/20 08:04:40;;;;;;;7.63;2.08;;;;;;;9.85;66.12;101472.75;4759479;29;124275;-71
2023/12/20 08:07:08;;;;;;;10.95;2.25;;;;;;;9.84;66.06;101468.34;4759559;29;124226;-70
2023/12/20 08:09:36;;;;;;;9.77;2.53;;;;;;;9.83;66.28;101477.22;4772854;29;119187;-69
2023/12/20 08:12:04;;;;;;;5.45;1.67;;;;;;;9.83;66.29;101485.16;4775424;29;118752;-69
2023/12/20 08:14:31;;;;;;;9.32;1.92;;;;;;;9.82;66.26;101486.06;4772470;29;124175;-70
2023/12/20 08:16:58;;;;;;;8.85;2.15;;;;;;;9.83;66.26;101482.53;4770065;29;124000;-69
2023/12/20 08:19:25;;;;;;;9.25;2.30;;;;;;;9.83;66.31;101495.75;4768877;29;118978;-71
2023/12/20 08:21:53;;;;;;;7.60;2.15;;;;;;;9.84;66.24;101494.81;4777658;29;118317;-71
2023/12/20 08:24:20;;;;;;;9.95;2.00;;;;;;;9.85;66.29;101498.31;4762207;29;123820;-71
2023/12/20 08:26:47;;;;;;;14.73;2.25;;;;;;;9.86;66.30;101492.97;4756689;29;124329;-69
2023/12/20 08:29:14;;;;;;;11.40;2.22;;;;;;;9.86;66.43;101498.28;4745858;29;121200;-69
2023/12/20 08:31:41;;;;;;;9.45;2.10;;;;;;;9.89;66.19;101502.63;4743810;29;120606;-69
2023/12/20 08:34:11;;;;;;;10.27;1.95;;;;;;;9.89;66.31;101503.47;4771279;29;123948;-69
2023/12/20 08:36:39;;;;;;;8.30;1.90;;;;;;;9.91;66.25;101501.66;4777593;29;124826;-70
2023/12/20 08:39:07;;;;;;;9.27;1.52;;;;;;;9.92;66.23;101498.06;4761016;29;120125;-70
2023/12/20 08:41:35;;;;;;;9.00;1.88;;;;;;;9.92;66.36;101492.78;4760215;29;118932;-69
2023/12/20 08:44:03;;;;;;;8.43;2.17;;;;;;;9.95;66.28;101491.84;4776609;29;124495;-69
2023/12/20 08:46:30;;;;;;;9.93;2.17;;;;;;;9.96;66.05;101498.84;4777128;29;123717;-70
2023/12/20 08:48:57;;;;;;;10.65;1.98;;;;;;;9.99;66.08;101487.31;4772282;29;120016;-71
2023/12/20 08:51:25;;;;;;;8.90;2.13;;;;;;;10.01;66.18;101485.47;4760209;29;118807;-71
2023/12/20 08:53:53;;;;;;;9.60;1.63;;;;;;;10.02;66.27;101479.25;4765730;29;123944;-71
2023/12/20 08:56:20;;;;;;;8.95;2.00;;;;;;;10.02;66.26;101466.91;4777575;29;124195;-72
2023/12/20 08:58:47;;;;;;;11.68;2.08;;;;;;;10.06;66.36;101472.97;4776748;29;119420;-71
2023/12/20 09:01:15;;;;;;;10.05;1.88;;;;;;;10.09;66.29;101456.97;4777413;29;118974;-72
2023/12/20 09:03:43;;;;;;;14.50;2.58;;;;;;;10.10;66.19;101461.38;4777122;29;124757;-71
2023/12/20 09:06:10;;;;;;;14.55;2.25;;;;;;;10.12;66.30;101457.75;4762127;29;124012;-71
2023/12/20 09:08:38;;;;;;;8.10;1.60;;;;;;;10.14;66.01;101444.47;4760381;29;120225;-72
2023/12/20 09:11:06;;;;;;;8.98;1.80;;;;;;;10.17;66.38;101465.53;4761916;29;119339;-72
2023/12/20 09:13:34;;;;;;;9.27;1.92;;;;;;;10.19;66.21;101458.41;4747321;29;124979;-71
2023/12/20 09:16:02;;;;;;;6.80;1.80;;;;;;;10.21;66.37;101461.88;4764628;29;121898;-71
2023/12/20 09:18:30;;;;;;;7.53;1.70;;;;;;;10.24;66.21;101460.91;4770519;29;120048;-71
2023/12/20 09:20:57;;;;;;;10.43;1.60;;;;;;;10.25;66.12;101462.63;4766482;29;119317;-72
2023/12/20 09:23:24;;;;;;;12.23;2.45;;;;;;;10.26;66.27;101464.34;4758356;29;124616;-72
2023/12/20 09:25:51;;;;;;;11.18;1.75;;;;;;;10.28;65.94;101473.09;4779902;29;124600;-71
2023/12/20 09:28:23;;;;;;;9.13;2.00;;;;;;;10.30;66.12;101465.97;4771849;29;119750;-71
2023/12/20 09:30:50;;;;;;;9.00;1.98;;;;;;;10.32;66.22;101470.34;4780938;29;121456;-72
2023/12/20 09:33:18;;;;;;;5.63;1.70;;;;;;;10.35;66.01;101464.06;4767812;29;126229;-71
2023/12/20 09:35:45;;;;;;;7.38;1.65;;;;;;;10.37;65.97;101461.38;4763656;29;124335;-72
2023/12/20 09:38:14;;;;;;;10.85;2.03;;;;;;;10.40;66.22;101461.28;4778652;29;119769;-72
2023/12/20 09:40:42;;;;;;;10.68;1.63;;;;;;;10.42;65.92;101456.81;4766945;29;120000;-71
2023/12/20 09:43:14;;;;;;;12.70;1.95;;;;;;;10.44;66.04;101447.03;4760291;29;124396;-71
2023/12/20 09:45:47;;;;;;;8.80;1.90;;;;;;;10.46;66.13;101461.06;4774547;29;125248;-71
2023/12/20 09:48:18;;;;;;;6.68;1.77;;;;;;;10.47;66.20;101462.78;4768160;29;118891;-72
2023/12/20 09:50:47;;;;;;;6.60;1.90;;;;;;;10.48;66.02;101464.53;4760818;29;118865;-71
2023/12/20 09:53:23;;;;;;;9.40;1.88;;;;;;;10.49;66.01;101469.78;4758448;29;125856;-71
2023/12/20 09:55:51;;;;;;;9.45;2.03;;;;;;;10.51;66.07;101475.03;4768122;29;123599;-72
2023/12/20 09:58:18;;;;;;;9.40;2.15;;;;;;;10.52;65.84;101460.84;4768137;29;119338;-72
2023/12/20 10:00:46;;;;;;;6.38;1.85;;;;;;;10.54;66.12;101474.91;4757217;29;121000;-72
2023/12/20 10:03:15;;;;;;;12.00;1.98;;;;;;;10.56;65.73;101473.06;4767451;29;123886;-72
2023/12/20 10:05:43;;;;;;;9.13;1.92;;;;;;;10.56;65.88;101467.75;4771331;29;123745;-72
2023/12/20 10:08:10;;;;;;;10.02;1.63;;;;;;;10.57;65.90;101469.50;4769236;29;119798;-70
2023/12/20 10:10:37;;;;;;;6.95;1.90;;;;;;;10.58;65.86;101465.06;4772230;29;119331;-70
2023/12/20 10:13:15;;;;;;;8.52;1.90;;;;;;;10.58;65.75;101465.91;4754333;29;123251;-72
2023/12/20 10:15:42;;;;;;;10.93;1.90;;;;;;;10.60;65.75;101465.88;4771198;29;124224;-71
2023/12/20 10:18:12;;;;;;;9.23;1.85;;;;;;;10.60;66.01;101468.53;4757929;29;119933;-70
2023/12/20 10:20:40;;;;;;;12.25;2.35;;;;;;;10.60;65.70;101457.94;4776123;29;119899;-70
2023/12/20 10:23:08;;;;;;;5.88;1.50;;;;;;;10.61;65.89;101455.22;4777143;29;124743;-70
2023/12/20 10:25:35;;;;;;;10.50;1.77;;;;;;;10.62;65.95;101462.25;4776772;29;124939;-70
2023/12/20 10:28:17;;;;;;;9.55;2.13;;;;;;;10.64;65.92;101465.72;4778007;29;119261;-70
2023/12/20 10:30:44;;;;;;;9.80;1.90;;;;;;;10.66;65.79;101463.88;4759268;29;118070;-70
2023/12/20 10:33:12;;;;;;;13.55;2.10;;;;;;;10.66;65.64;101463.88;4756551;29;123328;-71
2023/12/20 10:35:40;;;;;;;10.48;1.90;;;;;;;10.68;65.84;101462.03;4768605;29;123844;-70
2023/12/20 10:38:13;;;;;;;11.57;1.95;;;;;;;10.70;65.66;101460.19;4751750;29;120068;-70
2023/12/20 10:40:42;;;;;;;5.47;1.50;;;;;;;10.71;65.75;101461.91;4736168;29;119891;-70
2023/12/20 10:43:10;;;;;;;10.32;2.00;;;;;;;10.75;65.93;101456.53;4750499;29;124134;-70
2023/12/20 10:45:38;;;;;;;6.60;1.85;;;;;;;10.77;65.80;101449.38;4762338;29;124090;-70
2023/12/20 10:48:06;;;;;;;9.02;1.80;;;;;;;10.78;65.79;101448.47;4761261;29;119541;-70
2023/12/20 10:50:38;;;;;;;9.05;2.10;;;;;;;10.79;65.83;101447.53;4761903;29;118922;-70
2023/12/20 10:53:06;;;;;;;8.50;2.15;;;;;;;10.83;65.85;101443.84;4759524;29;123509;-70
2023/12/20 10:55:34;;;;;;;7.97;1.60;;;;;;;10.84;65.69;101440.28;4761890;29;125210;-70
2023/12/20 10:58:06;;;;;;;6.93;1.83;;;;;;;10.85;65.59;101442.00;4760857;29;120181;-70
2023/12/20 11:00:39;;;;;;;10.73;1.77;;;;;;;10.87;65.60;101445.50;4747323;29;119437;-70
2023/12/20 11:03:09;;;;;;;7.88;1.83;;;;;;;10.88;65.67;101432.16;4771226;29;123787;-70
2023/12/20 11:05:46;;;;;;;4.82;1.60;;;;;;;10.91;65.79;101436.50;4756162;29;124485;-70
2023/12/20 11:08:31;;;;;;;10.32;2.20;;;;;;;10.93;65.53;101424.06;4740155;29;121778;-70
2023/12/20 11:11:06;;;;;;;9.05;2.20;;;;;;;10.95;65.68;101421.34;4746405;29;118877;-70
2023/12/20 11:13:47;;;;;;;7.30;1.90;;;;;;;10.97;65.67;101415.06;4772531;29;127477;-70
2023/12/20 11:16:15;;;;;;;6.13;1.60;;;;;;;10.98;65.75;101414.16;4785614;29;123944;-70
2023/12/20 11:18:45;;;;;;;14.52;2.30;;;;;;;11.00;65.76;101409.66;4768864;29;118689;-70
2023/12/20 11:21:14;;;;;;;7.05;1.88;;;;;;;11.03;65.67;101409.53;4764055;29;119951;-70